• Join FlightAware (Why Join?)
  • Login
  • US Flag 
01:52PM EDT


 

Airport Tracker/Info


-or-


 

Live Flight TrackerFlight Track Log ✈ DAL268 ✈ 29-Jul-2013 ✈ KJFK - LLBG / TLV

Flight Track Log - Related Links

Times and Time Zones

All times are in EDT time to prevent confusion due to time zone crossing. See the DAL268 flight status page for this flight to view local times or setup timezone preferences in your user account.

Time Position Orientation Groundspeed Altitude Reporting Facility
EDT Latitude Longitude Course Direction KTS MPH feet Rate Location/Type
01:09AM 40.6330 -73.7830 323° Northwest 110 127  Level FlightAware
01:09AM 40.6400 -73.7980 302° West 165 190 420 Level FlightAware
01:10AM 40.6490 -73.8170 302° West 178 205 300 1,140 Climbing FlightAware
01:10AM 40.6530 -73.8330 288° West 182 209 700 1,440 Climbing FlightAware
01:10AM 40.6430 -73.8640 247° West 203 234 1,400 1,200 Climbing FlightAware
01:11AM 40.6350 -73.8720 217° Southwest 219 252 1,500 660 Climbing FlightAware
01:11AM 40.6300 -73.8750 204° Southwest 226 260 1,600 1,020 Climbing FlightAware
01:11AM 40.6070 -73.8870 202° Southwest 246 283 2,000 900 Climbing FlightAware
01:11AM 40.5860 -73.8940 194° South 272 313 2,300 1,560 Climbing FlightAware
01:12AM 40.5420 -73.8790 165° South 298 343 3,400 2,340 Climbing FlightAware
01:12AM 40.5300 -73.8624 134° Southeast 303 349 3,900 2,400 Climbing FlightAware ADS-B
01:12AM 40.5274 -73.8578 127° Southeast 304 350 4,000 3,000 Climbing FlightAware ADS-B
01:12AM 40.5251 -73.8532 123° Southeast 305 351 4,200 2,520 Climbing FlightAware ADS-B
01:12AM 40.5226 -73.8464 116° Southeast 305 351 4,300 2,820 Climbing FlightAware ADS-B
01:13AM 40.5177 -73.8232 106° East 304 350 5,000 3,360 Climbing FlightAware ADS-B
01:13AM 40.5173 -73.8178 96° East 304 350 5,200 2,640 Climbing FlightAware ADS-B
01:13AM 40.5172 -73.8067 91° East 304 350 5,400 2,160 Climbing FlightAware ADS-B
01:13AM 40.5179 -73.7975 84° East 306 352 5,600 2,400 Climbing FlightAware ADS-B
01:13AM 40.5191 -73.7884 80° East 305 351 5,800 2,640 Climbing FlightAware ADS-B
01:13AM 40.5207 -73.7812 74° East 305 351 6,000 3,000 Climbing FlightAware ADS-B
01:13AM 40.5228 -73.7743 68° East 305 351 6,200 2,520 Climbing FlightAware ADS-B
01:13AM 40.5248 -73.7695 61° Northeast 304 350 6,300 2,520 Climbing FlightAware ADS-B
01:13AM 40.5272 -73.7646 57° Northeast 303 349 6,500 2,700 Climbing FlightAware ADS-B
01:13AM 40.5338 -73.7529 53° Northeast 302 348 6,800 2,580 Climbing FlightAware ADS-B
01:13AM 40.5481 -73.7306 50° Northeast 304 350 7,500 2,220 Climbing FlightAware ADS-B
01:14AM 40.5632 -73.7078 49° Northeast 314 361 8,000 1,920 Climbing FlightAware ADS-B
01:14AM 40.5780 -73.6863 48° Northeast 319 367 8,500 2,280 Climbing FlightAware ADS-B
01:14AM 40.5842 -73.6778 46° Northeast 322 371 8,800 2,400 Climbing FlightAware ADS-B
01:14AM 40.5888 -73.6725 41° Northeast 324 373 8,900 1,680 Climbing FlightAware ADS-B
01:14AM 40.5924 -73.6688 38° Northeast 325 374 9,000 2,400 Climbing FlightAware ADS-B
01:14AM 40.6006 -73.6616 34° Northeast 325 374 9,300 2,400 Climbing FlightAware ADS-B
01:14AM 40.6049 -73.6591 24° Northeast 324 373 9,400 1,680 Climbing FlightAware ADS-B
01:14AM 40.6105 -73.6565 19° North 324 373 9,500 1,800 Climbing FlightAware ADS-B
01:15AM 40.6189 -73.6541 12° North 322 371 9,700 2,160 Climbing FlightAware ADS-B
01:15AM 40.6270 -73.6531 North 320 368 9,900 1,620 Climbing FlightAware ADS-B
01:15AM 40.6800 -73.6520 North 345 397 10,800 1,440 Climbing FlightAware
01:15AM 40.6902 -73.6516 North 341 392 10,900 1,020 Climbing FlightAware ADS-B
01:16AM 40.7402 -73.6503 North 382 440 11,400 1,260 Climbing FlightAware ADS-B
01:16AM 40.7956 -73.6490 North 401 461 12,200 1,860 Climbing FlightAware ADS-B
01:17AM 40.8535 -73.6487 360° North 414 476 13,300 2,160 Climbing FlightAware ADS-B
01:17AM 40.9068 -73.6478 North 420 483 14,300 2,160 Climbing FlightAware ADS-B
01:17AM 40.9323 -73.6432 North 428 493 14,800 2,280 Climbing FlightAware ADS-B
01:18AM 40.9476 -73.6379 15° North 432 497 15,100 2,220 Climbing FlightAware ADS-B
01:18AM 40.9633 -73.6296 22° Northeast 437 503 15,400 1,980 Climbing FlightAware ADS-B
01:18AM 40.9822 -73.6174 26° Northeast 442 509 15,700 1,800 Climbing FlightAware ADS-B
01:18AM 40.9987 -73.6022 35° Northeast 446 513 16,000 1,980 Climbing FlightAware ADS-B
01:18AM 41.0115 -73.5880 40° Northeast 452 520 16,300 840 Climbing FlightAware ADS-B
01:19AM 41.0939 -73.4895 42° Northeast 452 520 16,900 300 Climbing FlightAware ADS-B
01:20AM 41.1606 -73.4073 43° Northeast 419 482 16,800  Descending FlightAware ADS-B
01:20AM 41.2078 -73.3502 42° Northeast 418 481 16,900 900 Climbing FlightAware ADS-B
01:21AM 41.2536 -73.2940 43° Northeast 425 489 17,800 1,800 Climbing FlightAware ADS-B
01:21AM 41.2989 -73.2391 42° Northeast 430 495 18,800 1,800 Climbing FlightAware ADS-B
01:22AM 41.3440 -73.1850 42° Northeast 436 502 19,700 1,740 Climbing FlightAware ADS-B
01:23AM 41.3895 -73.1194 47° Northeast 438 504 20,700 1,800 Climbing FlightAware ADS-B
01:23AM 41.4116 -73.0731 58° Northeast 449 517 21,300 1,680 Climbing FlightAware ADS-B
01:23AM 41.4430 -73.0040 59° Northeast 455 524 22,100 1,080 Climbing FlightAware
01:24AM 41.4972 -72.9153 51° Northeast 453 521 22,600 480 Climbing FlightAware ADS-B
01:25AM 41.5560 -72.8280 48° Northeast 480 552 22,800 120 Climbing FlightAware
01:25AM 41.6010 -72.7600 48° Northeast 480 552 22,800  Level FlightAware
01:26AM 41.6470 -72.6920 48° Northeast 480 552 22,800  Level FlightAware
01:27AM 41.6920 -72.6250 48° Northeast 480 552 22,800 2,340 Level FlightAware
01:27AM 41.7900 -72.4810 48° Northeast 521 600 25,800 2,340 Climbing FlightAware
01:28AM 41.8410 -72.4090 46° Northeast 521 600 25,800 1,020 Level FlightAware
01:29AM 41.7920 -72.4790 227° Southwest 521 600 27,200 1,980 Climbing FlightAware
01:29AM 41.9850 -72.2040 47° Northeast 542 624 28,300 1,440 Climbing FlightAware
01:30AM 42.0430 -72.1220 46° Northeast 546 628 28,800 1,260 Climbing FlightAware
01:30AM 42.1070 -72.0300 47° Northeast 549 632 29,800 1,500 Climbing FlightAware
01:31AM 42.1700 -71.9440 45° Northeast 548 631 30,600 1,200 Climbing FlightAware
01:31AM 42.2180 -71.8700 49° Northeast 548 631 31,100 1,140 Climbing FlightAware
01:32AM 42.2880 -71.7480 52° Northeast 548 631 32,000 1,200 Climbing FlightAware
01:33AM 42.3380 -71.6610 52° Northeast 546 628 32,600 840 Climbing FlightAware
01:33AM 42.3820 -71.5510 62° Northeast 544 626 33,000 300 Climbing FlightAware
01:34AM 42.4160 -71.4520 65° Northeast 543 625 33,000  Level FlightAware
01:34AM 42.4500 -71.3470 66° East 541 623 33,000  Level FlightAware
01:35AM 42.4870 -71.2320 66° East 541 623 33,000  Level FlightAware
01:35AM 42.5230 -71.1200 66° East 540 621 33,000  Level FlightAware
01:36AM 42.5540 -71.0240 66° East 540 621 33,000  Level FlightAware
01:37AM 42.5930 -70.9100 65° Northeast 542 624 33,000  Level FlightAware
01:37AM 42.6300 -70.7980 66° East 547 629 33,000  Level FlightAware
01:38AM 42.6730 -70.6770 64° Northeast 549 632 33,000  Level FlightAware
01:38AM 42.7080 -70.5810 64° Northeast 549 632 33,000  Level FlightAware
01:39AM 42.7390 -70.4610 71° East 549 632 33,000  Level FlightAware
01:40AM 42.7760 -70.3200 70° East 554 638 33,000  Level FlightAware
01:40AM 42.8010 -70.2140 72° East 556 640 33,000  Level FlightAware
01:41AM 42.8240 -70.1140 73° East 557 641 33,000  Level FlightAware
01:41AM 42.8560 -69.9790 72° East 563 648 33,000  Level FlightAware
01:42AM 42.8850 -69.8610 71° East 566 651 33,000  Level FlightAware
01:43AM 42.9140 -69.7420 72° East 567 652 33,000  Level FlightAware
01:43AM 42.9420 -69.6230 72° East 568 654 33,000  Level FlightAware
01:44AM 42.9700 -69.5110 71° East 569 655 33,000  Level FlightAware
01:44AM 43.0000 -69.3850 72° East 568 654 33,000  Level FlightAware
01:45AM 43.0280 -69.2690 72° East 567 652 33,000  Level FlightAware
01:45AM 43.0570 -69.1500 72° East 567 652 33,000  Level FlightAware
01:46AM 43.0890 -69.0180 72° East 567 652 33,000  Level FlightAware
01:47AM 43.1180 -68.9050 71° East 567 652 33,000  Level FlightAware
01:47AM 43.1440 -68.8010 71° East 567 652 33,000  Level FlightAware
01:48AM 43.1710 -68.6940 71° East 567 652 33,000  Level FlightAware
01:49AM 43.1970 -68.5870 72° East 567 652 33,000  Level FlightAware
01:49AM 43.2240 -68.4830 70° East 567 652 33,000  Level FlightAware
01:50AM 43.2490 -68.3820 71° East 567 652 33,000  Level FlightAware
01:50AM 43.2750 -68.2770 71° East 567 652 33,000  Level FlightAware
01:51AM 43.3020 -68.1700 71° East 567 652 33,000  Level FlightAware
01:52AM 43.3280 -68.0660 71° East 567 652 33,000  Level FlightAware
01:52AM 43.5140 -67.8040 50° Northeast 576 663 33,000  Level FlightAware
01:53AM 43.5730 -67.7090 49° Northeast 575 662 33,000  Level FlightAware
01:53AM 43.6250 -67.6250 49° Northeast 574 661 33,000  Level FlightAware
01:54AM 43.6930 -67.5130 50° Northeast 574 661 33,000  Level FlightAware
01:55AM 43.7540 -67.4150 49° Northeast 572 658 33,000  Level FlightAware
01:55AM 43.8120 -67.3170 51° Northeast 572 658 33,000  Level FlightAware
01:56AM 43.8720 -67.2190 50° Northeast 572 658 33,000  Level FlightAware
01:56AM 43.9310 -67.1200 50° Northeast 573 659 33,000  Level FlightAware
01:57AM 43.9830 -67.0350 50° Northeast 573 659 33,000  Level FlightAware
01:58AM 44.0490 -66.9220 51° Northeast 575 662 33,000  Level FlightAware
01:58AM 44.1100 -66.8220 50° Northeast 569 655 33,000  Level FlightAware
01:59AM 44.1770 -66.7090 50° Northeast 569 655 33,000  Level FlightAware
01:59AM 44.2370 -66.6080 50° Northeast 569 655 33,000  Level FlightAware
02:00AM 44.2930 -66.5070 52° Northeast 573 659 33,000  Level FlightAware
02:01AM 44.3520 -66.4060 51° Northeast 573 659 33,000  Level FlightAware
02:01AM 44.4090 -66.3080 51° Northeast 573 659 33,000  Level FlightAware
02:02AM 44.4680 -66.2030 52° Northeast 573 659 33,000  Level FlightAware
02:02AM 44.5250 -66.1020 52° Northeast 573 659 33,000  Level FlightAware
02:03AM 44.5950 -65.9770 52° Northeast 573 659 33,000  Level FlightAware
02:04AM 44.6540 -65.8750 51° Northeast 573 659 33,000  Level FlightAware
02:04AM 44.7100 -65.7750 52° Northeast 573 659 33,000  Level FlightAware
02:05AM 44.7700 -65.6670 52° Northeast 572 658 33,000  Level FlightAware
02:05AM 44.8270 -65.5650 52° Northeast 572 658 33,000  Level FlightAware
02:06AM 44.8870 -65.4560 52° Northeast 572 658 33,000  Level FlightAware
02:07AM 44.9390 -65.3620 52° Northeast 571 657 33,000  Level FlightAware
02:07AM 44.9970 -65.2590 51° Northeast 570 656 33,000  Level FlightAware
02:08AM 45.0550 -65.1530 52° Northeast 570 656 33,000  Level FlightAware
02:08AM 45.1140 -65.0440 52° Northeast 570 656 33,000  Level FlightAware
02:09AM 45.1650 -64.9500 52° Northeast 567 652 33,000  Level FlightAware
02:10AM 45.2220 -64.8470 52° Northeast 565 650 33,000  Level FlightAware
02:10AM 45.2790 -64.7390 53° Northeast 562 647 33,000  Level FlightAware
02:11AM 45.3360 -64.6340 52° Northeast 560 644 33,000  Level FlightAware
02:11AM 45.3860 -64.5430 52° Northeast 559 643 33,000  Level FlightAware
02:12AM 45.4460 -64.4320 52° Northeast 558 642 33,000  Level FlightAware
02:12AM 45.5030 -64.3230 53° Northeast 559 643 33,000  Level FlightAware
02:13AM 45.5510 -64.2320 53° Northeast 559 643 33,000  Level FlightAware
02:14AM 45.6010 -64.1410 52° Northeast 559 643 33,000  Level FlightAware
02:14AM 45.6510 -64.0490 52° Northeast 559 643 33,000  Level FlightAware
02:15AM 45.7000 -63.9600 52° Northeast 559 643 33,000  Level FlightAware
02:15AM 45.7500 -63.8680 52° Northeast 559 643 33,000  Level FlightAware
02:16AM 45.7990 -63.7790 52° Northeast 559 643 33,000  Level FlightAware
02:17AM 45.8470 -63.6890 53° Northeast 559 643 33,000  Level FlightAware
02:17AM 45.8970 -63.5970 52° Northeast 559 643 33,000  Level FlightAware
02:18AM 45.9460 -63.5070 52° Northeast 559 643 33,000  Level FlightAware
02:19AM 45.9960 -63.4150 52° Northeast 559 643 33,000  Level FlightAware
02:19AM 46.0460 -63.3230 52° Northeast 559 643 33,000  Level FlightAware
02:20AM 46.0950 -63.2330 52° Northeast 559 643 33,000  Level FlightAware
02:20AM 46.2130 -62.9580 58° Northeast 551 634 33,000  Level FlightAware
02:21AM 46.2660 -62.8510 54° Northeast 549 632 33,000  Level FlightAware
02:21AM 46.3210 -62.7450 53° Northeast 549 632 33,000  Level FlightAware
02:22AM 46.3750 -62.6370 54° Northeast 549 632 33,000  Level FlightAware
02:23AM 46.4230 -62.5420 54° Northeast 549 632 33,000  Level FlightAware
02:23AM 46.4640 -62.4590 54° Northeast 548 631 33,000  Level FlightAware
02:24AM 46.5200 -62.3460 54° Northeast 548 631 33,000  Level FlightAware
02:24AM 46.5670 -62.2500 55° Northeast 546 628 33,000  Level FlightAware
02:25AM 46.6270 -62.1310 54° Northeast 545 627 33,000  Level FlightAware
02:25AM 46.6730 -62.0360 55° Northeast 544 626 33,000  Level FlightAware
02:26AM 46.7260 -61.9280 54° Northeast 544 626 33,000  Level FlightAware
02:27AM 46.7790 -61.8180 55° Northeast 544 626 33,000  Level FlightAware
02:27AM 46.8310 -61.7130 54° Northeast 543 625 33,000  Level FlightAware
02:28AM 46.8760 -61.6180 55° Northeast 543 625 33,000  Level FlightAware
02:28AM 46.9420 -61.4830 54° Northeast 542 624 33,000  Level FlightAware
02:29AM 46.9890 -61.3830 55° Northeast 541 623 33,000  Level FlightAware
02:30AM 47.0420 -61.2760 54° Northeast 540 621 33,000  Level FlightAware
02:30AM 47.0890 -61.1770 55° Northeast 540 621 33,000  Level FlightAware
02:31AM 47.1400 -61.0690 55° Northeast 539 620 33,000  Level FlightAware
02:31AM 47.1940 -60.9540 55° Northeast 538 619 33,000  Level FlightAware
02:32AM 47.2390 -60.8580 55° Northeast 539 620 33,000  Level FlightAware
02:33AM 47.2870 -60.7580 55° Northeast 539 620 33,000  Level FlightAware
02:33AM 47.3310 -60.6660 55° Northeast 539 620 33,000  Level FlightAware
02:34AM 47.3750 -60.5740 55° Northeast 539 620 33,000  Level FlightAware
02:34AM 47.4170 -60.4840 55° Northeast 539 620 33,000  Level FlightAware
02:35AM 47.4910 -60.3170 57° Northeast 538 619 33,000  Level FlightAware
02:36AM 47.5390 -60.2140 55° Northeast 538 619 33,000  Level FlightAware
02:36AM 47.5830 -60.1220 55° Northeast 538 619 33,000  Level FlightAware
02:37AM 47.6280 -60.0260 55° Northeast 538 619 33,000  Level FlightAware
02:37AM 47.6720 -59.9340 55° Northeast 538 619 33,000  Level FlightAware
02:38AM 47.7150 -59.8410 55° Northeast 538 619 33,000  Level FlightAware
02:39AM 47.8010 -59.6370 58° Northeast 537 618 33,000  Level FlightAware
02:39AM 47.8430 -59.5430 56° Northeast 537 618 33,000  Level FlightAware
02:40AM 47.9140 -59.3850 56° Northeast 536 617 33,000  Level FlightAware
02:41AM 47.9640 -59.2740 56° Northeast 535 616 33,000  Level FlightAware
02:41AM 48.0070 -59.1800 56° Northeast 535 616 33,000  Level FlightAware
02:42AM 48.0720 -59.0280 57° Northeast 535 616 33,000  Level FlightAware
02:43AM 48.1310 -58.8950 56° Northeast 538 619 33,000  Level FlightAware
02:43AM 48.1920 -58.7550 57° Northeast 538 619 33,000  Level FlightAware
02:44AM 48.2410 -58.6390 58° Northeast 537 618 33,000  Level FlightAware
02:45AM 48.3040 -58.4960 56° Northeast 537 618 33,000  Level FlightAware
02:45AM 48.3500 -58.3890 57° Northeast 536 617 33,000  Level FlightAware
02:46AM 48.3980 -58.2760 57° Northeast 536 617 33,000  Level FlightAware
02:46AM 48.4380 -58.1830 57° Northeast 535 616 33,000  Level FlightAware
02:47AM 48.4830 -58.0790 57° Northeast 534 615 33,000  Level FlightAware
02:48AM 48.5370 -57.9510 57° Northeast 533 613 33,000  Level FlightAware
02:48AM 48.5760 -57.8570 58° Northeast 531 611 33,000  Level FlightAware
02:49AM 48.6230 -57.7440 58° Northeast 532 612 33,000  Level FlightAware
02:49AM 48.6730 -57.6250 58° Northeast 531 611 33,000  Level FlightAware
02:50AM 48.7200 -57.5150 57° Northeast 531 611 33,000  Level FlightAware
02:51AM 48.7740 -57.3830 58° Northeast 529 609 33,000  Level FlightAware
02:51AM 48.8180 -57.2760 58° Northeast 530 610 33,000  Level FlightAware
02:52AM 48.8610 -57.1590 61° Northeast 530 610 33,000  Level FlightAware
02:52AM 48.8990 -57.0460 63° Northeast 530 610 33,000  Level FlightAware
02:53AM 48.9380 -56.9270 63° Northeast 530 610 33,000  Level FlightAware
02:54AM 48.9760 -56.8140 63° Northeast 530 610 33,000  Level FlightAware
02:54AM 49.0150 -56.7010 62° Northeast 530 610 33,000  Level FlightAware
02:55AM 49.0560 -56.5790 63° Northeast 531 611 33,000  Level FlightAware
02:55AM 49.0960 -56.4630 62° Northeast 532 612 33,000  Level FlightAware
02:56AM 49.1360 -56.3460 62° Northeast 531 611 33,000  Level FlightAware
02:56AM 49.1680 -56.2500 63° Northeast 531 611 33,000  Level FlightAware
02:57AM 49.2130 -56.1130 63° Northeast 530 610 33,000  Level FlightAware
02:58AM 49.2520 -55.9960 63° Northeast 529 609 33,000  Level FlightAware
02:58AM 49.2910 -55.8790 63° Northeast 528 608 33,000  Level FlightAware
02:59AM 49.3290 -55.7620 63° Northeast 528 608 33,000  Level FlightAware
02:59AM 49.3670 -55.6450 63° Northeast 527 606 33,000  Level FlightAware
03:00AM 49.4150 -55.5010 63° Northeast 527 606 33,000  Level FlightAware
03:01AM 49.4610 -55.3590 63° Northeast 525 604 33,000  Level FlightAware
03:02AM 49.5040 -55.2250 64° Northeast 525 604 33,000  Level FlightAware
03:02AM 49.5230 -55.1650 64° Northeast 524 603 33,000  Level FlightAware
03:03AM 49.5800 -54.9870 64° Northeast 525 604 33,000  Level FlightAware
03:03AM 49.6160 -54.8730 64° Northeast 526 605 33,000  Level FlightAware
03:04AM 49.6540 -54.7520 64° Northeast 526 605 33,000  Level FlightAware
03:04AM 49.6900 -54.6370 64° Northeast 526 605 33,000  Level FlightAware
03:05AM 49.7270 -54.5150 65° Northeast 526 605 33,000  Level FlightAware
03:06AM 49.7167 -55.0000 66° East 524 603 33,000  Level ETMS Enhanced Traffic Management System
03:06AM 49.7640 -54.3960 64° Northeast 525 604 33,000  Level FlightAware
03:06AM 49.8000 -54.2780 65° Northeast 525 604 33,000  Level FlightAware
03:07AM 49.8460 -54.1290 64° Northeast 524 603 33,000  Level FlightAware
03:07AM 49.8770 -54.0270 65° Northeast 524 603 33,000  Level FlightAware
03:08AM 49.9140 -53.9050 65° Northeast 523 602 33,000  Level FlightAware
03:09AM 49.9550 -53.7690 65° Northeast 522 601 33,000  Level FlightAware
03:09AM 49.9850 -53.6670 65° Northeast 522 601 33,000  Level FlightAware
03:10AM 50.0210 -53.5480 65° Northeast 522 601 33,000  Level FlightAware
03:10AM 50.0610 -53.4120 65° Northeast 522 601 33,000  Level FlightAware
03:11AM 50.0910 -53.3130 66° East 522 601 33,000  Level FlightAware
03:12AM 50.1220 -53.2070 65° Northeast 522 601 33,000  Level FlightAware
03:12AM 50.1650 -53.0570 66° East 521 600 33,000  Level FlightAware
03:13AM 50.1950 -52.9540 66° East 521 600 33,000  Level FlightAware
03:13AM 50.2320 -52.8240 66° East 521 600 33,000  Level FlightAware
03:14AM 50.2640 -52.7140 65° Northeast 521 600 33,000  Level FlightAware
03:15AM 50.2990 -52.5980 65° Northeast 521 600 33,000  Level FlightAware
03:15AM 50.3300 -52.4930 65° Northeast 521 600 33,000  Level FlightAware
03:16AM 50.3740 -52.3290 67° East 520 598 33,000  Level FlightAware
03:16AM 50.4060 -52.2160 66° East 518 596 33,000  Level FlightAware
03:17AM 50.4380 -52.1020 66° East 518 596 33,000  Level FlightAware
03:18AM 50.4680 -51.9970 66° East 518 596 33,000  Level FlightAware
03:18AM 50.4980 -51.8920 66° East 518 596 33,000  Level FlightAware
03:19AM 50.5270 -51.7860 67° East 518 596 33,000  Level FlightAware
03:19AM 50.5570 -51.6810 66° East 518 596 33,000  Level FlightAware
03:20AM 50.5870 -51.5750 66° East 518 596 33,000  Level FlightAware
03:21AM 50.6170 -51.4700 66° East 518 596 33,000  Level FlightAware
03:21AM 50.6470 -51.3610 67° East 518 596 33,000  Level FlightAware
03:22AM 50.6790 -51.2500 66° East 518 596 33,000  Level FlightAware
03:22AM 50.6990 -51.1790 66° East 518 596 33,000  Level FlightAware
03:23AM 50.7290 -51.0700 66° East 518 596 33,000  Level FlightAware
03:23AM 50.7600 -50.9620 66° East 518 596 33,000  Level FlightAware
03:24AM 50.7900 -50.8560 66° East 518 596 33,000  Level FlightAware
03:25AM 50.8210 -50.7470 66° East 518 596 33,000  Level FlightAware
03:25AM 50.8500 -50.6410 67° East 518 596 33,000  Level FlightAware
03:26AM 50.8800 -50.5340 66° East 518 596 33,000  Level FlightAware
03:26AM 50.9500 -50.0833 66° East 510 587 33,000  Level Gander Center
03:27AM 50.9667 -49.9667 77° East 500 575 33,000  Level Moncton Center
03:28AM 51.0333 -49.6833 69° East 530 610 33,000  Level Gander Center
03:30AM 51.0684 -49.4377 77° East  Level FlightAware Approximate
03:31AM 51.0000 -50.0000 77° East 515 593 33,000  Level ETMS Enhanced Traffic Management System
03:37AM 51.3014 -47.7686 79° East 515 593 33,000  Level FlightAware Transoceanic
03:38AM 51.3292 -47.5438 79° East 515 593 33,000  Level FlightAware Transoceanic
03:39AM 51.3566 -47.3189 79° East 515 593 33,000  Level FlightAware Transoceanic
03:40AM 51.3835 -47.0936 79° East 515 593 33,000  Level FlightAware Transoceanic
03:41AM 51.4100 -46.8681 79° East 515 593 33,000  Level FlightAware Transoceanic
03:42AM 51.4361 -46.6423 80° East 515 593 33,000  Level FlightAware Transoceanic
03:43AM 51.4617 -46.4163 80° East 515 593 33,000  Level FlightAware Transoceanic
03:44AM 51.4869 -46.1900 80° East 515 593 33,000  Level FlightAware Transoceanic
03:45AM 51.5117 -45.9635 80° East 515 593 33,000  Level FlightAware Transoceanic
03:46AM 51.5360 -45.7367 80° East 515 593 33,000  Level FlightAware Transoceanic
03:47AM 51.5599 -45.5097 80° East 515 593 33,000  Level FlightAware Transoceanic
03:48AM 51.5834 -45.2825 81° East 515 593 33,000  Level FlightAware Transoceanic
03:49AM 51.6064 -45.0550 81° East 515 593 33,000  Level FlightAware Transoceanic
03:50AM 51.6289 -44.8273 81° East 515 593 33,000  Level FlightAware Transoceanic
03:51AM 51.6511 -44.5994 81° East 515 593 33,000  Level FlightAware Transoceanic
03:52AM 51.6727 -44.3712 81° East 515 593 33,000  Level FlightAware Transoceanic
03:53AM 51.6940 -44.1428 82° East 515 593 33,000  Level FlightAware Transoceanic
03:54AM 51.7148 -43.9142 82° East 515 593 33,000  Level FlightAware Transoceanic
03:55AM 51.7352 -43.6855 82° East 515 593 33,000  Level FlightAware Transoceanic
03:56AM 51.7551 -43.4565 82° East 515 593 33,000  Level FlightAware Transoceanic
03:57AM 51.7746 -43.2273 82° East 515 593 33,000  Level FlightAware Transoceanic
03:58AM 51.7936 -42.9979 82° East 515 593 33,000  Level FlightAware Transoceanic
03:59AM 51.8121 -42.7683 83° East 515 593 33,000  Level FlightAware Transoceanic
04:00AM 51.8303 -42.5385 83° East 515 593 33,000  Level FlightAware Transoceanic
04:01AM 51.8480 -42.3086 83° East 515 593 33,000  Level FlightAware Transoceanic
04:02AM 51.8652 -42.0785 83° East 515 593 33,000  Level FlightAware Transoceanic
04:03AM 51.8820 -41.8482 83° East 515 593 33,000  Level FlightAware Transoceanic
04:04AM 51.8983 -41.6177 84° East 515 593 33,000  Level FlightAware Transoceanic
04:05AM 51.9142 -41.3871 84° East 515 593 33,000  Level FlightAware Transoceanic
04:06AM 51.9296 -41.1562 84° East 515 593 33,000  Level FlightAware Transoceanic
04:07AM 51.9446 -40.9253 84° East 515 593 33,000  Level FlightAware Transoceanic
04:08AM 51.9591 -40.6942 84° East 515 593 33,000  Level FlightAware Transoceanic
04:09AM 51.9732 -40.4629 84° East 515 593 33,000  Level FlightAware Transoceanic
04:10AM 51.9868 -40.2315 85° East 515 593 33,000  Level FlightAware Transoceanic
04:11AM 52.0006 -39.9899 85° East  Level FlightAware Approximate
04:12AM 52.0029 -39.9802 77° East  Level FlightAware Approximate
04:13AM 52.0369 -39.7437 77° East  Level FlightAware Approximate
04:14AM 52.0704 -39.5073 77° East  Level FlightAware Approximate
04:15AM 52.1035 -39.2705 77° East  Level FlightAware Approximate
04:16AM 52.1360 -39.0334 77° East  Level FlightAware Approximate
04:17AM 52.1681 -38.7960 77° East  Level FlightAware Approximate
04:18AM 52.1997 -38.5582 78° East  Level FlightAware Approximate
04:18AM 52.0000 -40.0000 77° East 493 567 33,000  Level ETMS Enhanced Traffic Management System
04:19AM 52.2309 -38.3200 78° East  Level FlightAware Approximate
04:20AM 52.2616 -38.0812 78° East  Level FlightAware Approximate
04:21AM 52.2918 -37.8419 78° East  Level FlightAware Approximate
04:22AM 52.3215 -37.6024 78° East  Level FlightAware Approximate
04:23AM 52.3508 -37.3626 79° East  Level FlightAware Approximate
04:24AM 52.3486 -37.3805 79° East 493 567 33,000  Level FlightAware Transoceanic
04:25AM 52.3750 -37.1604 79° East 493 567 33,000  Level FlightAware Transoceanic
04:26AM 52.4010 -36.9401 79° East 493 567 33,000  Level FlightAware Transoceanic
04:27AM 52.4266 -36.7195 79° East 493 567 33,000  Level FlightAware Transoceanic
04:28AM 52.4518 -36.4986 79° East 493 567 33,000  Level FlightAware Transoceanic
04:29AM 52.4766 -36.2775 80° East 493 567 33,000  Level FlightAware Transoceanic
04:30AM 52.5009 -36.0561 80° East 493 567 33,000  Level FlightAware Transoceanic
04:31AM 52.5249 -35.8345 80° East 493 567 33,000  Level FlightAware Transoceanic
04:32AM 52.5484 -35.6127 80° East 493 567 33,000  Level FlightAware Transoceanic
04:33AM 52.5715 -35.3906 80° East 493 567 33,000  Level FlightAware Transoceanic
04:34AM 52.5942 -35.1683 81° East 493 567 33,000  Level FlightAware Transoceanic
04:35AM 52.6165 -34.9457 81° East 493 567 33,000  Level FlightAware Transoceanic
04:36AM 52.6384 -34.7229 81° East 493 567 33,000  Level FlightAware Transoceanic
04:37AM 52.6598 -34.5000 81° East 493 567 33,000  Level FlightAware Transoceanic
04:38AM 52.6809 -34.2767 81° East 493 567 33,000  Level FlightAware Transoceanic
04:39AM 52.7015 -34.0533 81° East 493 567 33,000  Level FlightAware Transoceanic
04:40AM 52.7217 -33.8297 82° East 493 567 33,000  Level FlightAware Transoceanic
04:41AM 52.7415 -33.6059 82° East 493 567 33,000  Level FlightAware Transoceanic
04:42AM 52.7608 -33.3818 82° East 493 567 33,000  Level FlightAware Transoceanic
04:43AM 52.7797 -33.1576 82° East 493 567 33,000  Level FlightAware Transoceanic
04:44AM 52.7982 -32.9332 82° East 493 567 33,000  Level FlightAware Transoceanic
04:45AM 52.8163 -32.7086 83° East 493 567 33,000  Level FlightAware Transoceanic
04:46AM 52.8340 -32.4838 83° East 493 567 33,000  Level FlightAware Transoceanic
04:47AM 52.8512 -32.2588 83° East 493 567 33,000  Level FlightAware Transoceanic
04:48AM 52.8680 -32.0336 83° East 493 567 33,000  Level FlightAware Transoceanic
04:49AM 52.8844 -31.8083 83° East 493 567 33,000  Level FlightAware Transoceanic
04:50AM 52.9003 -31.5828 83° East 493 567 33,000  Level FlightAware Transoceanic
04:51AM 52.9159 -31.3571 84° East 493 567 33,000  Level FlightAware Transoceanic
04:52AM 52.9310 -31.1313 84° East 493 567 33,000  Level FlightAware Transoceanic
04:53AM 52.9456 -30.9054 84° East 493 567 33,000  Level FlightAware Transoceanic
04:54AM 52.9599 -30.6792 84° East 493 567 33,000  Level FlightAware Transoceanic
04:55AM 52.9737 -30.4530 84° East 493 567 33,000  Level FlightAware Transoceanic
04:56AM 52.9870 -30.2265 84° East 493 567 33,000  Level FlightAware Transoceanic
04:57AM 53.0012 -29.9794 84° East  Level FlightAware Approximate
04:58AM 53.0017 -29.9587 86° East  Level FlightAware Approximate
04:59AM 53.0118 -29.7109 86° East  Level FlightAware Approximate
05:00AM 53.0214 -29.4629 86° East  Level FlightAware Approximate
05:01AM 53.0304 -29.2158 86° East  Level FlightAware Approximate
05:02AM 53.0389 -28.9685 87° East  Level FlightAware Approximate
05:03AM 53.0469 -28.7212 87° East  Level FlightAware Approximate
05:04AM 53.0543 -28.4737 87° East  Level FlightAware Approximate
05:05AM 53.0613 -28.2262 87° East  Level FlightAware Approximate
05:06AM 53.0677 -27.9786 87° East  Level FlightAware Approximate
05:07AM 53.0737 -27.7309 88° East  Level FlightAware Approximate
05:08AM 53.0791 -27.4832 88° East  Level FlightAware Approximate
05:09AM 53.0840 -27.2354 88° East  Level FlightAware Approximate
05:10AM 53.0884 -26.9875 88° East  Level FlightAware Approximate
05:11AM 53.0923 -26.7396 88° East  Level FlightAware Approximate
05:12AM 53.0956 -26.4917 89° East  Level FlightAware Approximate
05:13AM 53.0984 -26.2437 89° East  Level FlightAware Approximate
05:14AM 53.1008 -25.9957 89° East  Level FlightAware Approximate
05:15AM 53.1026 -25.7477 89° East  Level FlightAware Approximate
05:16AM 53.1039 -25.4996 89° East  Level FlightAware Approximate
05:17AM 53.1047 -25.2516 90° East  Level FlightAware Approximate
05:18AM 53.1049 -25.0035 90° East  Level FlightAware Approximate
05:19AM 53.1047 -24.7554 90° East  Level FlightAware Approximate
05:20AM 53.1039 -24.5074 90° East  Level FlightAware Approximate
05:21AM 53.1026 -24.2593 90° East  Level FlightAware Approximate
05:22AM 53.1008 -24.0113 91° East  Level FlightAware Approximate
05:23AM 53.0985 -23.7633 91° East  Level FlightAware Approximate
05:24AM 53.0957 -23.5153 91° East  Level FlightAware Approximate
05:25AM 53.0924 -23.2673 91° East  Level FlightAware Approximate
05:26AM 53.0885 -23.0194 91° East  Level FlightAware Approximate
05:27AM 53.0841 -22.7716 92° East  Level FlightAware Approximate
05:28AM 53.0792 -22.5238 92° East  Level FlightAware Approximate
05:29AM 53.0738 -22.2761 92° East  Level FlightAware Approximate
05:30AM 53.0679 -22.0284 92° East  Level FlightAware Approximate
05:31AM 53.0615 -21.7808 92° East  Level FlightAware Approximate
05:32AM 53.0545 -21.5332 93° East  Level FlightAware Approximate
05:33AM 53.0471 -21.2858 93° East  Level FlightAware Approximate
05:34AM 53.0391 -21.0384 93° East  Level FlightAware Approximate
05:35AM 53.0306 -20.7912 93° East  Level FlightAware Approximate
05:36AM 53.0216 -20.5440 93° East  Level FlightAware Approximate
05:37AM 53.0121 -20.2969 94° East  Level FlightAware Approximate
05:38AM 53.0021 -20.0500 94° East  Level FlightAware Approximate
05:39AM 52.9994 -19.8026 90° East  Level FlightAware Approximate
05:40AM 52.9981 -19.5552 90° East  Level FlightAware Approximate
05:41AM 52.9964 -19.3077 91° East  Level FlightAware Approximate
05:42AM 52.9941 -19.0603 91° East  Level FlightAware Approximate
05:43AM 52.9913 -18.8130 91° East  Level FlightAware Approximate
05:44AM 52.9880 -18.5656 91° East  Level FlightAware Approximate
05:45AM 52.9842 -18.3183 91° East  Level FlightAware Approximate
05:46AM 52.9799 -18.0710 92° East  Level FlightAware Approximate
05:47AM 52.9751 -17.8238 92° East  Level FlightAware Approximate
05:48AM 52.9697 -17.5767 92° East  Level FlightAware Approximate
05:49AM 52.9639 -17.3296 92° East  Level FlightAware Approximate
05:50AM 52.9575 -17.0826 92° East  Level FlightAware Approximate
05:51AM 52.9506 -16.8356 93° East  Level FlightAware Approximate
05:52AM 52.9432 -16.5888 93° East  Level FlightAware Approximate
05:53AM 52.9353 -16.3420 93° East  Level FlightAware Approximate
05:54AM 52.9269 -16.0953 93° East  Level FlightAware Approximate
05:55AM 52.9180 -15.8487 93° East  Level FlightAware Approximate
05:56AM 52.9086 -15.6023 94° East  Level FlightAware Approximate
05:57AM 52.8986 -15.3559 94° East  Level FlightAware Approximate
05:58AM 52.8881 -15.1096 94° East  Level FlightAware Approximate
05:59AM 52.8775 -14.8635 94° East  Level FlightAware Approximate
06:00AM 52.8667 -14.6174 94° East  Level FlightAware Approximate
06:01AM 52.8553 -14.3715 94° East  Level FlightAware Approximate
06:02AM 52.8435 -14.1256 94° East  Level FlightAware Approximate
06:03AM 52.8311 -13.8799 95° East  Level FlightAware Approximate
06:03AM 52.8610 -12.8990 95° East 613 705 33,000  Level FlightAware
06:03AM 52.8530 -12.7740 96° East 613 705 33,000  Level FlightAware
06:04AM 52.8370 -12.5920 98° East 614 707 33,000  Level FlightAware
06:05AM 52.8230 -12.4160 97° East 615 708 33,000  Level FlightAware
06:05AM 52.8120 -12.2660 97° East 617 710 33,000  Level FlightAware
06:06AM 52.7980 -12.0990 98° East 617 710 33,000  Level FlightAware
06:06AM 52.7850 -11.9400 98° East 618 711 33,000  Level FlightAware
06:07AM 52.7710 -11.7720 98° East 619 712 33,000  Level FlightAware
06:07AM 52.7570 -11.6130 98° East 618 711 33,000  Level FlightAware
06:08AM 52.7410 -11.4260 98° East 618 711 33,000  Level FlightAware
06:09AM 52.7220 -11.2170 98° East 618 711 33,000  Level FlightAware
06:09AM 52.7070 -11.0490 98° East 617 710 33,000  Level FlightAware
06:10AM 52.6890 -10.8630 99° East 617 710 33,000  Level FlightAware
06:11AM 52.6740 -10.6910 98° East 618 711 33,000  Level FlightAware
06:11AM 52.6590 -10.5380 99° East 617 710 33,000  Level FlightAware
06:12AM 52.6420 -10.3660 99° East 617 710 33,000  Level FlightAware
06:12AM 52.6260 -10.2000 99° East 615 708 33,000  Level FlightAware
06:13AM 52.6100 -10.0380 99° East 616 709 33,000  Level FlightAware
06:14AM 52.5910 -9.8500 99° East 616 709 33,000  Level FlightAware
06:14AM 52.5740 -9.6880 100° East 615 708 33,000  Level FlightAware
06:15AM 52.5570 -9.5270 100° East 614 707 33,000  Level FlightAware
06:15AM 52.5410 -9.3710 100° East 613 705 33,000  Level FlightAware
06:16AM 52.5230 -9.2060 100° East 614 707 33,000  Level FlightAware
06:17AM 52.5080 -9.0630 100° East 614 707 33,000  Level FlightAware
06:17AM 52.4880 -8.8800 100° East 613 705 33,000  Level FlightAware
06:18AM 52.4702 -8.7229 100° East 1 1 33,000  Level FlightAware UK
06:18AM 52.4700 -8.7200 100° East 614 707 33,000  Level FlightAware
06:18AM 52.4530 -8.5740 101° East 612 704 33,000  Level FlightAware
06:19AM 52.4350 -8.4200 101° East 611 703 33,000  Level FlightAware
06:19AM 52.4170 -8.2610 100° East 610 702 33,000  Level FlightAware
06:20AM 52.3960 -8.0760 100° East 609 701 33,000  Level FlightAware
06:21AM 52.3800 -7.9450 101° East 609 701 33,000  Level FlightAware
06:21AM 52.3600 -7.7830 101° East 608 700 33,000  Level FlightAware
06:22AM 52.3440 -7.6480 101° East 607 699 33,000  Level FlightAware
06:22AM 52.3394 -7.6088 101° East 1 1 33,000  Level FlightAware UK
06:22AM 52.3250 -7.4950 101° East 608 700 33,000  Level FlightAware
06:22AM 52.3230 -7.4741 101° East 1 1 33,000  Level FlightAware UK
06:23AM 52.3063 -7.3393 101° East 498 573 33,000  Level FlightAware UK
06:23AM 52.3040 -7.3240 101° East 608 700 33,000  Level FlightAware
06:24AM 52.2840 -7.1670 102° East 608 700 33,000  Level FlightAware
06:24AM 52.2630 -7.0010 102° East 608 700 33,000  Level FlightAware
06:25AM 52.2450 -6.8570 101° East 608 700 33,000  Level FlightAware
06:25AM 52.2240 -6.6950 102° East 609 701 33,000  Level FlightAware
06:26AM 52.2020 -6.5350 102° East 607 699 33,000  Level FlightAware
06:26AM 52.2024 -6.5313 102° East 500 575 33,000  Level FlightAware UK
06:26AM 52.1847 -6.3973 102° East 500 575 33,000  Level FlightAware UK
06:26AM 52.1810 -6.3740 102° East 606 697 33,000  Level FlightAware
06:27AM 52.1620 -6.2320 102° East 606 697 33,000  Level FlightAware
06:28AM 52.1410 -6.0774 102° East 498 573 33,000  Level FlightAware UK
06:28AM 52.1390 -6.0630 102° East 604 695 33,000  Level FlightAware
06:28AM 52.1170 -5.9040 103° East 604 695 33,000  Level FlightAware
06:29AM 52.0980 -5.7620 102° East 603 694 33,000  Level FlightAware
06:29AM 52.0760 -5.6040 103° East 603 694 33,000  Level FlightAware
06:30AM 52.0550 -5.4580 103° East 602 693 33,000  Level FlightAware
06:31AM 52.0320 -5.2950 103° East 602 693 33,000  Level FlightAware
06:31AM 52.0110 -5.1550 104° East 602 693 33,000  Level FlightAware
06:32AM 51.9880 -4.9970 103° East 600 690 33,000  Level FlightAware
06:32AM 51.9590 -4.8480 107° East 599 689 33,000  Level FlightAware
06:33AM 51.9270 -4.6900 108° East 598 688 33,000  Level FlightAware
06:33AM 51.9000 -4.5530 108° East 598 688 33,000  Level FlightAware
06:34AM 51.8700 -4.4000 108° East 598 688 33,000  Level FlightAware
06:35AM 51.8390 -4.2480 108° East 598 688 33,000  Level FlightAware
06:35AM 51.8100 -4.1030 108° East 598 688 33,000  Level FlightAware
06:36AM 51.7790 -3.9550 109° East 598 688 33,000  Level FlightAware
06:36AM 51.7470 -3.7990 108° East 598 688 33,000  Level FlightAware
06:37AM 51.7200 -3.6640 108° East 598 688 33,000  Level FlightAware
06:37AM 51.6950 -3.5170 105° East 600 690 33,000  Level FlightAware
06:38AM 51.6802 -3.3891 101° East 602 693 33,000  Level FlightAware ADS-B
06:38AM 51.6689 -3.2559 98° East 605 696 33,000  Level FlightAware ADS-B
06:39AM 51.6566 -3.0998 97° East 604 695 33,000  Level FlightAware ADS-B
06:40AM 51.6455 -2.9666 98° East 604 695 33,000  Level FlightAware ADS-B
06:40AM 51.6346 -2.8330 97° East 604 695 33,000  Level FlightAware ADS-B
06:41AM 51.6231 -2.6954 98° East 604 695 33,000  Level FlightAware ADS-B
06:41AM 51.6119 -2.5529 97° East 605 696 33,000  Level FlightAware ADS-B
06:42AM 51.6016 -2.4194 97° East 604 695 33,000  Level FlightAware ADS-B
06:42AM 51.5912 -2.2815 97° East 605 696 33,000  Level FlightAware ADS-B
06:43AM 51.5808 -2.1479 97° East 605 696 33,000  Level FlightAware ADS-B
06:43AM 51.5700 -2.0144 97° East 605 696 33,000  Level FlightAware ADS-B
06:43AM 51.5648 -1.9613 99° East 605 696 33,000 1,080 Level FlightAware ADS-B
06:44AM 51.5461 -1.8256 102° East 604 695 33,800 1,620 Climbing FlightAware ADS-B
06:44AM 51.5276 -1.6947 103° East 602 693 34,700 1,140 Climbing FlightAware ADS-B
06:45AM 51.5086 -1.5601 103° East 603 694 35,000 240 Climbing FlightAware ADS-B
06:45AM 51.4899 -1.4253 103° East 602 693 35,000  Level FlightAware ADS-B
06:46AM 51.4712 -1.2953 103° East 601 692 35,000  Level FlightAware ADS-B
06:46AM 51.4522 -1.1608 103° East 600 690 35,000  Level FlightAware ADS-B
06:47AM 51.4329 -1.0271 103° East 600 690 35,000  Level FlightAware ADS-B
06:47AM 51.4139 -0.8975 103° East 600 690 35,000  Level FlightAware ADS-B
06:48AM 51.3943 -0.7640 103° East 599 689 35,000  Level FlightAware ADS-B
06:48AM 51.3748 -0.6302 103° East 599 689 35,000  Level FlightAware ADS-B
06:49AM 51.3539 -0.4928 104° East 599 689 35,000  Level FlightAware ADS-B
06:49AM 51.3339 -0.3552 103° East 599 689 35,000  Level FlightAware ADS-B
06:50AM 51.3186 -0.2161 100° East 599 689 35,000  Level FlightAware ADS-B
06:51AM 51.3043 -0.0853 100° East 599 689 35,000  Level FlightAware ADS-B
06:51AM 51.2901 0.0449 100° East 599 689 35,000  Level FlightAware ADS-B
06:52AM 51.2757 0.1796 100° East 599 689 35,000  Level FlightAware ADS-B
06:52AM 51.2611 0.3099 100° East 599 689 35,000  Level FlightAware ADS-B
06:53AM 51.2460 0.4443 100° East 599 689 35,000  Level FlightAware ADS-B
06:53AM 51.2303 0.5835 100° East 600 690 35,000  Level FlightAware ADS-B
06:54AM 51.2140 0.7264 100° East 600 690 35,000  Level FlightAware ADS-B
06:54AM 51.1956 0.8828 101° East 600 690 35,000  Level FlightAware ADS-B
06:55AM 51.1769 1.0389 101° East 600 690 35,000  Level FlightAware ADS-B
06:55AM 51.1576 1.1996 101° East 602 693 35,000  Level FlightAware ADS-B
06:56AM 51.1330 1.4060 101° East 492 566 35,000  Level FlightAware UK
06:56AM 51.1350 1.3910 101° East 603 694 35,000  Level FlightAware
06:57AM 51.1169 1.5374 101° East 492 566 35,000  Level FlightAware UK
06:57AM 51.1130 1.5690 101° East 603 694 35,000  Level FlightAware
06:57AM 51.0970 1.6950 101° East 603 694 35,000  Level FlightAware
06:58AM 51.0769 1.8501 101° East 494 568 35,000  Level FlightAware UK
06:58AM 51.0710 1.8950 101° East 604 695 35,000  Level FlightAware
06:59AM 51.0540 2.0250 102° East 603 694 35,000  Level FlightAware
06:59AM 51.0310 2.1940 102° East 603 694 35,000  Level FlightAware
06:59AM 51.0288 2.2165 102° East 494 568 35,000  Level FlightAware UK
07:00AM 51.0113 2.3464 102° East 492 566 35,000  Level FlightAware UK
07:00AM 51.0110 2.3500 102° East 601 692 35,000  Level FlightAware
07:01AM 50.9860 2.5360 102° East 602 693 35,000  Level FlightAware
07:01AM 50.9660 2.6830 102° East 603 694 35,000  Level FlightAware
07:02AM 50.9400 2.8780 102° East 605 696 35,000  Level FlightAware
07:02AM 50.9320 2.9300 104° East 605 696 35,000  Level FlightAware
07:03AM 50.9010 3.1239 104° East 496 571 35,000  Level FlightAware UK
07:03AM 50.8940 3.1610 104° East 604 695 35,000  Level FlightAware
07:04AM 50.8640 3.3220 106° East 604 695 35,000  Level FlightAware
07:04AM 50.8260 3.5200 107° East 603 694 35,000  Level FlightAware
07:05AM 50.7990 3.6550 108° East 603 694 35,000  Level FlightAware
07:06AM 50.7710 3.8010 107° East 601 692 35,000  Level FlightAware
07:06AM 50.7410 3.9560 107° East 598 688 35,000  Level FlightAware
07:07AM 50.7150 4.0890 107° East 596 686 35,000  Level FlightAware
07:07AM 50.6830 4.2590 106° East 593 682 35,000  Level FlightAware
07:08AM 50.6580 4.3870 107° East 590 679 35,000  Level FlightAware
07:08AM 50.6320 4.5350 105° East 587 676 35,000  Level FlightAware
07:09AM 50.6060 4.6740 106° East 585 673 35,000  Level FlightAware
07:10AM 50.5830 4.8050 105° East 582 670 35,000  Level FlightAware
07:10AM 50.5580 4.9430 106° East 579 666 35,000  Level FlightAware
07:11AM 50.5300 5.0920 106° East 575 662 35,000  Level FlightAware
07:11AM 50.4920 5.2230 114° Southeast 566 651 35,000  Level FlightAware
07:12AM 50.4400 5.3540 122° Southeast 557 641 35,000  Level FlightAware
07:13AM 50.3880 5.4700 125° Southeast 555 639 35,000  Level FlightAware
07:13AM 50.3410 5.5790 124° Southeast 556 640 35,000  Level FlightAware
07:14AM 50.2880 5.6990 125° Southeast 556 640 35,000 120 Level FlightAware
07:14AM 50.2350 5.8210 124° Southeast 559 643 35,200 780 Climbing FlightAware
07:15AM 50.1810 5.9440 124° Southeast 559 643 36,000 1,320 Climbing FlightAware
07:16AM 50.1330 6.0530 124° Southeast 557 641 36,800 840 Climbing FlightAware
07:16AM 50.0840 6.1620 125° Southeast 560 644 37,000 120 Climbing FlightAware
07:17AM 50.0320 6.2810 124° Southeast 559 643 37,000  Level FlightAware
07:17AM 49.9760 6.4030 125° Southeast 559 643 37,000  Level FlightAware
07:18AM 49.9290 6.5080 125° Southeast 560 644 37,000  Level FlightAware
07:18AM 49.8780 6.6200 125° Southeast 561 646 37,000  Level FlightAware
07:19AM 49.8220 6.7450 125° Southeast 561 646 37,000  Level FlightAware
07:20AM 49.7720 6.8530 126° Southeast 561 646 37,000  Level FlightAware
07:20AM 49.7100 6.9870 126° Southeast 560 644 37,000  Level FlightAware
07:21AM 49.6510 7.1140 126° Southeast 560 644 37,000  Level FlightAware
07:21AM 49.5970 7.2300 126° Southeast 560 644 37,000  Level FlightAware
07:22AM 49.5480 7.3380 125° Southeast 559 643 37,000  Level FlightAware
07:23AM 49.4960 7.4470 126° Southeast 560 644 37,000  Level FlightAware
07:23AM 49.4490 7.5480 126° Southeast 560 644 37,000  Level FlightAware
07:24AM 49.3930 7.6670 126° Southeast 561 646 37,000  Level FlightAware
07:24AM 49.3370 7.7860 126° Southeast 562 647 37,000  Level FlightAware
07:25AM 49.2820 7.9020 126° Southeast 562 647 37,000  Level FlightAware
07:26AM 49.2290 8.0140 126° Southeast 563 648 37,000  Level FlightAware
07:26AM 49.1740 8.1260 127° Southeast 561 646 37,000  Level FlightAware
07:27AM 49.1280 8.2220 126° Southeast 556 640 37,000  Level FlightAware
07:27AM 49.0740 8.3330 127° Southeast 555 639 37,000  Level FlightAware
07:28AM 49.0170 8.4230 134° Southeast 546 628 37,000  Level FlightAware
07:28AM 48.9460 8.5170 139° Southeast 551 634 37,000  Level FlightAware
07:29AM 48.8700 8.6200 138° Southeast 553 636 37,000  Level FlightAware
07:30AM 48.8030 8.7140 137° Southeast 552 635 37,000  Level FlightAware
07:30AM 48.7340 8.8080 138° Southeast 551 634 37,000  Level FlightAware
07:31AM 48.6780 8.8860 137° Southeast 550 633 37,000  Level FlightAware
07:31AM 48.6090 8.9830 137° Southeast 551 634 37,000  Level FlightAware
07:32AM 48.5420 9.0770 137° Southeast 550 633 37,000  Level FlightAware
07:33AM 48.4650 9.1820 138° Southeast 548 631 37,000  Level FlightAware
07:33AM 48.3990 9.2710 138° Southeast 541 623 37,000  Level FlightAware
07:34AM 48.3310 9.3610 139° Southeast 539 620 37,000  Level FlightAware
07:34AM 48.2580 9.4550 139° Southeast 538 619 37,000  Level FlightAware
07:35AM 48.1970 9.5310 140° Southeast 539 620 37,000  Level FlightAware
07:36AM 48.1050 9.6310 144° Southeast 536 617 37,000  Level FlightAware
07:36AM 48.0460 9.6930 145° Southeast 536 617 37,000  Level FlightAware
07:37AM 47.9730 9.7700 145° Southeast 536 617 37,000  Level FlightAware
07:37AM 47.8990 9.8470 145° Southeast 537 618 37,000  Level FlightAware
07:38AM 47.8250 9.9250 145° Southeast 537 618 37,000  Level FlightAware
07:39AM 47.7570 9.9950 145° Southeast 537 618 37,000  Level FlightAware
07:39AM 47.6920 10.0620 145° Southeast 530 610 37,000  Level FlightAware
07:40AM 47.6410 10.1150 145° Southeast 530 610 37,000  Level FlightAware
07:40AM 47.5280 10.2320 145° Southeast 527 606 37,000  Level FlightAware
07:41AM 47.4580 10.3020 146° Southeast 531 611 37,000  Level FlightAware
07:42AM 47.3750 10.3860 146° Southeast 528 608 37,000  Level FlightAware
07:43AM 47.2770 10.4860 145° Southeast 523 602 37,000  Level FlightAware
07:43AM 47.2170 10.5460 146° Southeast 520 598 37,000  Level FlightAware
07:44AM 47.1390 10.6250 145° Southeast 517 595 37,000  Level FlightAware
07:44AM 47.0690 10.6760 154° Southeast 508 585 37,000  Level FlightAware
07:45AM 46.9890 10.7280 156° South 504 580 37,000  Level FlightAware
07:45AM 46.9200 10.7750 155° Southeast 502 578 37,000  Level FlightAware
07:46AM 46.8400 10.8280 156° South 500 575 37,000  Level FlightAware
07:47AM 46.7720 10.8720 156° South 499 574 37,000  Level FlightAware
07:47AM 46.6810 10.9330 155° Southeast 501 577 37,000  Level FlightAware
07:48AM 46.6080 10.9810 156° South 501 577 37,000  Level FlightAware
07:49AM 46.5310 11.0430 151° Southeast 504 580 37,000  Level FlightAware
07:49AM 46.4980 11.0910 135° Southeast 510 587 37,000  Level FlightAware
07:49AM 46.4540 11.1680 130° Southeast 514 592 37,000  Level FlightAware
07:50AM 46.4020 11.2580 130° Southeast 513 590 37,000  Level FlightAware
07:51AM 46.3430 11.3690 128° Southeast 512 589 37,000  Level FlightAware
07:51AM 46.2910 11.4650 128° Southeast 514 592 37,000  Level FlightAware
07:52AM 46.2470 11.5470 128° Southeast 520 598 37,000  Level FlightAware
07:52AM 46.1880 11.6570 128° Southeast 521 600 37,000  Level FlightAware
07:53AM 46.1380 11.7460 129° Southeast 523 602 37,000  Level FlightAware
07:53AM 46.0900 11.8340 128° Southeast 520 598 37,000  Level FlightAware
07:54AM 46.0290 11.9430 129° Southeast 519 597 37,000  Level FlightAware
07:55AM 45.9690 12.0490 129° Southeast 517 595 37,000  Level FlightAware
07:55AM 45.9080 12.1600 128° Southeast 518 596 37,000  Level FlightAware
07:56AM 45.8630 12.2410 129° Southeast 517 595 37,000  Level FlightAware
07:57AM 45.8090 12.3350 129° Southeast 517 595 37,000  Level FlightAware
07:57AM 45.7560 12.4290 129° Southeast 517 595 37,000  Level FlightAware
07:58AM 45.7020 12.5230 129° Southeast 517 595 37,000  Level FlightAware
07:58AM 45.6500 12.6170 128° Southeast 517 595 37,000  Level FlightAware
07:59AM 45.6010 12.7030 129° Southeast 517 595 37,000  Level FlightAware
07:59AM 45.5620 12.7690 130° Southeast 521 600 37,000  Level FlightAware
08:00AM 45.5200 12.8440 129° Southeast 521 600 37,000  Level FlightAware
08:01AM 45.4260 13.0090 129° Southeast 515 593 37,000  Level FlightAware
08:01AM 45.3750 13.1120 125° Southeast 514 592 37,000  Level FlightAware
08:02AM 45.3280 13.2060 125° Southeast 512 589 37,000  Level FlightAware
08:03AM 45.2660 13.3280 126° Southeast 511 588 37,000  Level FlightAware
08:03AM 45.2180 13.4240 125° Southeast 511 588 37,000  Level FlightAware
08:04AM 45.1700 13.5200 125° Southeast 511 588 37,000  Level FlightAware
08:04AM 45.1210 13.6160 126° Southeast 512 589 37,000  Level FlightAware
08:05AM 45.0720 13.7130 126° Southeast 512 589 37,000  Level FlightAware
08:06AM 45.0150 13.8220 126° Southeast 520 598 37,000  Level FlightAware
08:06AM 44.9680 13.9160 125° Southeast 520 598 37,000  Level FlightAware
08:07AM 44.9150 14.0180 126° Southeast 522 601 37,000  Level FlightAware
08:07AM 44.8680 14.1110 125° Southeast 524 603 37,000  Level FlightAware
08:08AM 44.8190 14.2050 126° Southeast 524 603 37,000  Level FlightAware
08:09AM 44.7590 14.3210 126° Southeast 525 604 37,000  Level FlightAware
08:10AM 44.6870 14.4580 126° Southeast 525 604 37,000  Level FlightAware
08:10AM 44.6320 14.5630 126° Southeast 526 605 37,000  Level FlightAware
08:11AM 44.5850 14.6540 126° Southeast 527 606 37,000  Level FlightAware
08:11AM 44.5480 14.7230 127° Southeast 528 608 37,000  Level FlightAware
08:12AM 44.4600 14.8880 127° Southeast 524 603 37,000  Level FlightAware
08:13AM 44.4150 14.9750 126° Southeast 524 603 37,000  Level FlightAware
08:13AM 44.3580 15.0800 127° Southeast 524 603 37,000  Level FlightAware
08:14AM 44.3010 15.1860 127° Southeast 525 604 37,000  Level FlightAware
08:14AM 44.2490 15.2850 126° Southeast 524 603 37,000  Level FlightAware
08:15AM 44.1900 15.3940 127° Southeast 524 603 37,000  Level FlightAware
08:16AM 44.1460 15.4750 127° Southeast 524 603 37,000  Level FlightAware
08:16AM 44.0980 15.5620 128° Southeast 529 609 37,000  Level FlightAware
08:17AM 44.0490 15.6540 127° Southeast 529 609 37,000  Level FlightAware
08:17AM 44.0040 15.7360 127° Southeast 529 609 37,000  Level FlightAware
08:18AM 43.9460 15.8410 127° Southeast 528 608 37,000  Level FlightAware
08:18AM 43.8950 15.9350 127° Southeast 529 609 37,000  Level FlightAware
08:19AM 43.8480 16.0220 127° Southeast 529 609 37,000  Level FlightAware
08:20AM 43.7930 16.1210 128° Southeast 528 608 37,000  Level FlightAware
08:20AM 43.7380 16.2170 128° Southeast 528 608 37,000  Level FlightAware
08:21AM 43.6880 16.3080 127° Southeast 527 606 37,000  Level FlightAware
08:21AM 43.6360 16.4020 127° Southeast 527 606 37,000  Level FlightAware
08:22AM 43.5820 16.5000 127° Southeast 526 605 37,000  Level FlightAware
08:23AM 43.5300 16.5930 128° Southeast 526 605 37,000  Level FlightAware
08:23AM 43.4820 16.6780 128° Southeast 528 608 37,000  Level FlightAware
08:24AM 43.4250 16.7780 128° Southeast 528 608 37,000  Level FlightAware
08:24AM 43.3740 16.8680 128° Southeast 527 606 37,000  Level FlightAware
08:25AM 43.3210 16.9610 128° Southeast 526 605 37,000  Level FlightAware
08:25AM 43.2680 17.0520 129° Southeast 526 605 37,000  Level FlightAware
08:26AM 43.2160 17.1440 128° Southeast 527 606 37,000  Level FlightAware
08:27AM 43.1630 17.2360 128° Southeast 527 606 37,000  Level FlightAware
08:27AM 43.1090 17.3280 129° Southeast 523 602 37,000  Level FlightAware
08:28AM 43.0560 17.4230 127° Southeast 524 603 37,000  Level FlightAware
08:28AM 43.0040 17.5120 129° Southeast 524 603 37,000  Level FlightAware
08:29AM 42.9560 17.5930 129° Southeast 524 603 37,000  Level FlightAware
08:30AM 42.9000 17.6890 129° Southeast 524 603 37,000  Level FlightAware
08:30AM 42.8500 17.7750 128° Southeast 529 609 37,000  Level FlightAware
08:31AM 42.7840 17.8900 128° Southeast 530 610 37,000  Level FlightAware
08:31AM 42.7330 17.9760 129° Southeast 530 610 37,000  Level FlightAware
08:32AM 42.6780 18.0670 129° Southeast 529 609 37,000  Level FlightAware
08:33AM 42.6200 18.1660 129° Southeast 529 609 37,000  Level FlightAware
08:33AM 42.5680 18.2520 129° Southeast 529 609 37,000  Level FlightAware
08:34AM 42.5110 18.3280 135° Southeast 527 606 37,000  Level FlightAware
08:34AM 42.4780 18.3480 156° South 514 592 37,000  Level FlightAware
08:34AM 42.4110 18.3780 162° South 511 588 37,000  Level FlightAware
08:35AM 42.3320 18.4470 147° Southeast 523 602 37,000  Level FlightAware
08:36AM 42.2700 18.5400 132° Southeast 529 609 37,000  Level FlightAware
08:36AM 42.2200 18.6180 131° Southeast 530 610 37,000  Level FlightAware
08:37AM 42.1730 18.6940 130° Southeast 530 610 37,000  Level FlightAware
08:37AM 42.1070 18.7970 131° Southeast 531 611 37,000  Level FlightAware
08:38AM 42.0500 18.8880 130° Southeast 531 611 37,000  Level FlightAware
08:39AM 41.9930 18.9780 130° Southeast 531 611 37,000  Level FlightAware
08:39AM 41.9410 19.0570 131° Southeast 531 611 37,000  Level FlightAware
08:40AM 41.9000 19.1220 130° Southeast 531 611 37,000  Level FlightAware
08:40AM 41.8300 19.2290 131° Southeast 532 612 37,000  Level FlightAware
08:41AM 41.7740 19.3050 135° Southeast 530 610 37,000  Level FlightAware
08:42AM 41.7030 19.3950 137° Southeast 531 611 37,000  Level FlightAware
08:42AM 41.6120 19.5130 136° Southeast 529 609 37,000  Level FlightAware
08:43AM 41.5470 19.5970 136° Southeast 527 606 37,000  Level FlightAware
08:44AM 41.4830 19.6790 136° Southeast 526 605 37,000  Level FlightAware
08:44AM 41.4230 19.7580 135° Southeast 525 604 37,000  Level FlightAware
08:45AM 41.3630 19.8370 135° Southeast 523 602 37,000  Level FlightAware
08:45AM 41.3040 19.9130 136° Southeast 521 600 37,000  Level FlightAware
08:46AM 41.2450 19.9890 136° Southeast 520 598 37,000  Level FlightAware
08:47AM 41.1790 20.0740 136° Southeast 520 598 37,000  Level FlightAware
08:47AM 41.1260 20.1430 136° Southeast 520 598 37,000  Level FlightAware
08:48AM 41.0620 20.2240 136° Southeast 520 598 37,000  Level FlightAware
08:48AM 40.9980 20.3060 136° Southeast 521 600 37,000  Level FlightAware
08:49AM 40.9350 20.3860 136° Southeast 524 603 37,000  Level FlightAware
08:49AM 40.8800 20.4550 137° Southeast 524 603 37,000  Level FlightAware
08:50AM 40.8140 20.5390 136° Southeast 524 603 37,000  Level FlightAware
08:51AM 40.7500 20.6190 137° Southeast 524 603 37,000  Level FlightAware
08:51AM 40.6950 20.6870 137° Southeast 523 602 37,000  Level FlightAware
08:52AM 40.6360 20.7610 136° Southeast 524 603 37,000  Level FlightAware
08:52AM 40.5690 20.8470 136° Southeast 523 602 37,000  Level FlightAware
08:53AM 40.5150 20.9120 138° Southeast 524 603 37,000  Level FlightAware
08:54AM 40.4460 20.9970 137° Southeast 523 602 37,000  Level FlightAware
08:54AM 40.3870 21.0680 137° Southeast 523 602 37,000  Level FlightAware
08:55AM 40.3210 21.1380 141° Southeast 523 602 37,000  Level FlightAware
08:55AM 40.2520 21.2170 139° Southeast 522 601 37,000  Level FlightAware
08:56AM 40.1940 21.2840 139° Southeast 523 602 37,000  Level FlightAware
08:56AM 40.1370 21.3510 138° Southeast 524 603 37,000  Level FlightAware
08:57AM 40.0610 21.4360 139° Southeast 522 601 37,000  Level FlightAware
08:58AM 40.0000 21.5060 139° Southeast 521 600 37,000  Level FlightAware
08:58AM 39.9350 21.5780 140° Southeast 519 597 37,000  Level FlightAware
08:59AM 39.8700 21.6530 138° Southeast 518 596 37,000  Level FlightAware
08:59AM 39.8200 21.7200 134° Southeast 520 598 37,000  Level FlightAware
09:00AM 39.7840 21.7820 127° Southeast 524 603 37,000  Level FlightAware
09:00AM 39.7280 21.8820 126° Southeast 523 602 37,000  Level FlightAware
09:01AM 39.6790 21.9710 126° Southeast 522 601 37,000  Level FlightAware
09:02AM 39.6200 22.0750 126° Southeast 522 601 37,000  Level FlightAware
09:02AM 39.5580 22.1890 125° Southeast 522 601 37,000  Level FlightAware
09:03AM 39.4960 22.2980 126° Southeast 522 601 37,000  Level FlightAware
09:04AM 39.4500 22.3780 127° Southeast 521 600 37,000  Level FlightAware
09:04AM 39.3990 22.4690 126° Southeast 520 598 37,000  Level FlightAware
09:05AM 39.3480 22.5590 126° Southeast 520 598 37,000  Level FlightAware
09:05AM 39.3010 22.6420 126° Southeast 520 598 37,000  Level FlightAware
09:06AM 39.2500 22.7290 127° Southeast 520 598 37,000  Level FlightAware
09:07AM 39.2000 22.8180 126° Southeast 519 597 37,000  Level FlightAware
09:07AM 39.1480 22.9080 127° Southeast 518 596 37,000  Level FlightAware
09:08AM 39.1010 22.9900 126° Southeast 518 596 37,000  Level FlightAware
09:08AM 39.0490 23.0790 127° Southeast 518 596 37,000  Level FlightAware
09:09AM 38.9970 23.1700 126° Southeast 517 595 37,000  Level FlightAware
09:09AM 38.9510 23.2490 127° Southeast 518 596 37,000  Level FlightAware
09:10AM 38.8970 23.3400 127° Southeast 519 597 37,000  Level FlightAware
09:11AM 38.8540 23.4170 126° Southeast 520 598 37,000  Level FlightAware
09:11AM 38.8040 23.5010 127° Southeast 521 600 37,000  Level FlightAware
09:12AM 38.7570 23.5830 126° Southeast 522 601 37,000  Level FlightAware
09:12AM 38.7020 23.6740 128° Southeast 524 603 37,000  Level FlightAware
09:13AM 38.6480 23.7660 127° Southeast 525 604 37,000  Level FlightAware
09:14AM 38.5920 23.8620 127° Southeast 526 605 37,000  Level FlightAware
09:14AM 38.5390 23.9490 128° Southeast 526 605 37,000  Level FlightAware
09:15AM 38.4940 24.0260 127° Southeast 527 606 37,000  Level FlightAware
09:15AM 38.4470 24.1050 127° Southeast 525 604 37,000  Level FlightAware
09:16AM 38.3910 24.1960 128° Southeast 525 604 37,000  Level FlightAware
09:16AM 38.3340 24.2910 127° Southeast 523 602 37,000  Level FlightAware
09:17AM 38.2850 24.3720 128° Southeast 522 601 37,000  Level FlightAware
09:18AM 38.2370 24.4530 127° Southeast 522 601 37,000  Level FlightAware
09:18AM 38.1970 24.5180 128° Southeast 522 601 37,000  Level FlightAware
09:19AM 38.1310 24.6280 127° Southeast 521 600 37,000  Level FlightAware
09:19AM 38.0790 24.7120 128° Southeast 521 600 37,000  Level FlightAware
09:20AM 38.0280 24.7970 127° Southeast 521 600 37,000  Level FlightAware
09:21AM 37.9770 24.8790 128° Southeast 522 601 37,000  Level FlightAware
09:21AM 37.9250 24.9660 127° Southeast 523 602 37,000  Level FlightAware
09:22AM 37.8730 25.0490 128° Southeast 525 604 37,000  Level FlightAware
09:22AM 37.8240 25.1260 129° Southeast 527 606 37,000  Level FlightAware
09:23AM 37.7700 25.2160 127° Southeast 528 608 37,000  Level FlightAware
09:23AM 37.7150 25.3040 128° Southeast 529 609 37,000  Level FlightAware
09:24AM 37.6670 25.3820 128° Southeast 530 610 37,000  Level FlightAware
09:25AM 37.6110 25.4720 128° Southeast 531 611 37,000  Level FlightAware
09:25AM 37.5570 25.5570 129° Southeast 533 613 37,000  Level FlightAware
09:26AM 37.5100 25.6330 128° Southeast 533 613 37,000  Level FlightAware
09:26AM 37.4510 25.7250 129° Southeast 533 613 37,000  Level FlightAware
09:27AM 37.3980 25.8100 128° Southeast 532 612 37,000  Level FlightAware
09:27AM 37.3450 25.8950 128° Southeast 530 610 37,000  Level FlightAware
09:28AM 37.2900 25.9790 129° Southeast 530 610 37,000  Level FlightAware
09:29AM 37.2340 26.0680 128° Southeast 528 608 37,000  Level FlightAware
09:29AM 37.1810 26.1520 128° Southeast 528 608 37,000  Level FlightAware
09:30AM 37.1320 26.2280 129° Southeast 527 606 37,000  Level FlightAware
09:30AM 37.0770 26.3140 129° Southeast 526 605 37,000  Level FlightAware
09:31AM 37.0290 26.3900 128° Southeast 526 605 37,000  Level FlightAware
09:32AM 36.9690 26.4820 129° Southeast 525 604 37,000  Level FlightAware
09:32AM 36.9160 26.5650 129° Southeast 524 603 37,000  Level FlightAware
09:33AM 36.8660 26.6430 129° Southeast 522 601 37,000  Level FlightAware
09:33AM 36.8110 26.7270 129° Southeast 521 600 37,000  Level FlightAware
09:34AM 36.7560 26.8110 129° Southeast 520 598 37,000  Level FlightAware
09:34AM 36.7040 26.8930 128° Southeast 518 596 37,000  Level FlightAware
09:35AM 36.6500 26.9760 129° Southeast 518 596 37,000  Level FlightAware
09:36AM 36.5950 27.0590 130° Southeast 518 596 37,000  Level FlightAware
09:36AM 36.5430 27.1380 129° Southeast 515 593 37,000  Level FlightAware
09:37AM 36.4930 27.2170 128° Southeast 515 593 37,000  Level FlightAware
09:38AM 36.4220 27.3230 130° Southeast 520 598 37,000  Level FlightAware
09:38AM 36.3620 27.4150 129° Southeast 520 598 37,000  Level FlightAware
09:39AM 36.3130 27.4900 129° Southeast 520 598 37,000  Level FlightAware
09:40AM 36.2690 27.5570 129° Southeast 520 598 37,000  Level FlightAware
09:40AM 36.2060 27.6540 129° Southeast 520 598 37,000  Level FlightAware
09:42AM 35.9880 27.9740 129° Southeast 524 603 37,000  Level FlightAware
09:43AM 35.9400 28.0470 129° Southeast 524 603 37,000  Level FlightAware
09:43AM 35.8770 28.1390 130° Southeast 523 602 37,000  Level FlightAware
09:44AM 35.8270 28.2120 130° Southeast 523 602 37,000  Level FlightAware
09:45AM 35.7680 28.2990 130° Southeast 524 603 37,000  Level FlightAware
09:45AM 35.7110 28.3820 130° Southeast 524 603 37,000  Level FlightAware
09:46AM 35.6550 28.4660 129° Southeast 524 603 37,000  Level FlightAware
09:46AM 35.6010 28.5440 130° Southeast 525 604 37,000  Level FlightAware
09:47AM 35.5440 28.6260 130° Southeast 525 604 37,000  Level FlightAware
09:48AM 35.4960 28.6970 130° Southeast 525 604 37,000  Level FlightAware
09:48AM 35.4400 28.7790 130° Southeast 526 605 37,000  Level FlightAware
09:49AM 35.3890 28.8530 130° Southeast 526 605 37,000  Level FlightAware
09:49AM 35.3360 28.9290 131° Southeast 527 606 37,000  Level FlightAware
09:50AM 35.2700 29.0250 130° Southeast 527 606 37,000  Level FlightAware
09:50AM 35.2220 29.0930 131° Southeast 526 605 37,000  Level FlightAware
09:51AM 35.1600 29.1810 131° Southeast 526 605 37,000  Level FlightAware
09:52AM 35.1070 29.2580 130° Southeast 526 605 37,000  Level FlightAware
09:52AM 35.0540 29.3360 130° Southeast 526 605 37,000  Level FlightAware
09:53AM 34.9890 29.4270 131° Southeast 527 606 37,000  Level FlightAware
09:54AM 34.9350 29.5050 130° Southeast 527 606 37,000  Level FlightAware
09:54AM 34.8780 29.5830 132° Southeast 522 601 37,000  Level FlightAware
09:55AM 34.8210 29.6650 130° Southeast 523 602 37,000  Level FlightAware
09:55AM 34.7670 29.7410 131° Southeast 523 602 37,000  Level FlightAware
09:56AM 34.7020 29.8330 131° Southeast 523 602 37,000  Level FlightAware
09:56AM 34.6630 29.8870 131° Southeast 523 602 37,000  Level FlightAware
09:57AM 34.6100 29.9640 130° Southeast 523 602 37,000  Level FlightAware
09:58AM 34.5630 30.0330 130° Southeast 523 602 37,000  Level FlightAware
09:58AM 34.5150 30.1010 131° Southeast 523 602 37,000  Level FlightAware
09:59AM 34.4480 30.2800 120° Southeast 527 606 37,000  Level FlightAware
09:59AM 34.4110 30.3570 120° Southeast 527 606 37,000  Level FlightAware
10:00AM 34.3560 30.4730 120° Southeast 527 606 37,000  Level FlightAware
10:01AM 34.3120 30.5630 121° Southeast 527 606 37,000  Level FlightAware
10:01AM 34.2710 30.6470 121° Southeast 525 604 37,000  Level FlightAware
10:02AM 34.2250 30.7440 120° Southeast 523 602 37,000  Level FlightAware
10:03AM 34.1720 30.8530 120° Southeast 520 598 37,000  Level FlightAware
10:03AM 34.1270 30.9460 120° Southeast 517 595 37,000  Level FlightAware
10:04AM 34.0840 31.0330 121° Southeast 516 594 37,000  Level FlightAware
10:05AM 34.0110 31.1830 120° Southeast 518 596 37,000  Level FlightAware
10:05AM 33.9660 31.2710 122° Southeast 520 598 37,000  Level FlightAware
10:06AM 33.9240 31.3590 120° Southeast 521 600 37,000  Level FlightAware
10:07AM 33.8870 31.4350 120° Southeast 522 601 37,000  Level FlightAware
10:07AM 33.8370 31.5350 121° Southeast 525 604 37,000  Level FlightAware
10:08AM 33.7920 31.6240 121° Southeast 529 609 37,000  Level FlightAware
10:08AM 33.7480 31.7120 121° Southeast 531 611 37,000  Level FlightAware
10:09AM 33.7040 31.8010 121° Southeast 531 611 37,000  Level FlightAware
10:10AM 33.6600 31.8890 121° Southeast 531 611 37,000  Level FlightAware
10:10AM 33.6170 31.9750 121° Southeast 531 611 37,000  Level FlightAware
10:11AM 33.5710 32.0660 121° Southeast 531 611 37,000  Level FlightAware
10:11AM 33.5330 32.1410 121° Southeast 530 610 37,000  Level FlightAware
10:12AM 33.4810 32.2440 121° Southeast 530 610 37,000  Level FlightAware
10:13AM 33.4360 32.3320 121° Southeast 529 609 37,000 -360 Level FlightAware
10:13AM 33.3880 32.4270 121° Southeast 527 606 36,600 -960 Descending FlightAware
10:14AM 33.3490 32.5040 121° Southeast 529 609 35,900 -1,500 Descending FlightAware
10:14AM 33.3020 32.5970 121° Southeast 533 613 35,000 -1,440 Descending FlightAware
10:15AM 33.2510 32.6950 122° Southeast 534 615 34,100 -1,500 Descending FlightAware
10:16AM 33.2050 32.7830 122° Southeast 528 608 33,200 -1,920 Descending FlightAware
10:16AM 33.1640 32.8650 121° Southeast 520 598 32,000 -2,280 Descending FlightAware
10:17AM 33.1190 32.9510 122° Southeast 510 587 30,600 -2,400 Descending FlightAware
10:17AM 33.0720 33.0440 121° Southeast 500 575 29,100 -2,340 Descending FlightAware
10:18AM 33.0360 33.1140 122° Southeast 490 564 28,000 -2,280 Descending FlightAware
10:18AM 32.9890 33.2020 122° Southeast 476 548 26,500 -2,220 Descending FlightAware
10:19AM 32.9530 33.2720 121° Southeast 463 533 25,400 -2,100 Descending FlightAware
10:20AM 32.9080 33.3580 122° Southeast 447 514 24,000 -2,100 Descending FlightAware
10:20AM 32.8670 33.4360 122° Southeast 431 496 22,700 -1,980 Descending FlightAware
10:21AM 32.8300 33.5070 122° Southeast 416 479 21,600 -1,980 Descending FlightAware
10:21AM 32.7940 33.5770 121° Southeast 402 463 20,400 -1,920 Descending FlightAware
10:22AM 32.7620 33.6370 122° Southeast 391 450 19,400 -2,220 Descending FlightAware
10:23AM 32.7250 33.7070 122° Southeast 391 450 17,800 -2,640 Descending FlightAware
10:23AM 32.6950 33.7640 122° Southeast 396 456 16,400 -2,520 Descending FlightAware
10:24AM 32.6650 33.8230 121° Southeast 394 453 15,200 -2,220 Descending FlightAware
10:24AM 32.6250 33.8960 123° Southeast 389 448 13,700 -2,160 Descending FlightAware
10:25AM 32.5910 33.9610 122° Southeast 382 440 12,500 -1,860 Descending FlightAware
10:26AM 32.5600 34.0190 122° Southeast 375 432 11,600 -1,620 Descending FlightAware
10:26AM 32.5270 34.0830 121° Southeast 367 422 10,700 -1,500 Descending FlightAware
10:27AM 32.4840 34.1590 124° Southeast 360 414 9,600 -1,440 Descending FlightAware
10:27AM 32.4590 34.1910 133° Southeast 356 410 9,100 -1,440 Descending FlightAware
10:28AM 32.4380 34.2160 135° Southeast 354 407 8,600 -720 Descending FlightAware
10:28AM 32.4040 34.2580 134° Southeast 353 406 8,500 -180 Descending FlightAware
10:28AM 32.3910 34.2730 136° Southeast 353 406 8,500  Level FlightAware
10:29AM 32.3650 34.3050 134° Southeast 353 406 8,500  Level FlightAware
10:29AM 32.3540 34.3190 133° Southeast 353 406 8,500  Level FlightAware
10:29AM 32.3330 34.3450 134° Southeast 353 406 8,500  Level FlightAware
10:32AM 32.1268 34.6276 125° Southeast  Level FlightAware Approximate
10:33AM 32.0511 34.7806 115° Southeast  Level FlightAware Approximate
10:34AM 32.0000 34.8667 125° Southeast  Level FlightAware Approximate
10:35AM 32.0095 34.8769 125° Southeast  Level Estimated
10:36AM 32.0095 34.8769 125° Southeast  Level Estimated
10:37AM 32.0095 34.8769 125° Southeast  Level Estimated
10:38AM 32.0095 34.8769 125° Southeast  Level Estimated
10:39AM 32.0095 34.8769 125° Southeast  Level Estimated
10:40AM 32.0095 34.8769 125° Southeast  Level Estimated
10:41AM 32.0095 34.8769 125° Southeast  Level Estimated
10:42AM 32.0095 34.8769 125° Southeast  Level Estimated
10:43AM 32.0095 34.8769 125° Southeast  Level Estimated
10:44AM 32.0095 34.8769 125° Southeast  Level Estimated
10:45AM 32.0095 34.8769 125° Southeast  Level Estimated